sensor_id;sensor_type;location;lat;lon;timestamp;P1;durP1;ratioP1;P2;durP2;ratioP2
9409;SDS011;4744;52.576;13.568;2023-10-31T00:01:55;5.50;;;3.38;;
9409;SDS011;4744;52.576;13.568;2023-10-31T00:04:22;3.17;;;2.80;;
9409;SDS011;4744;52.576;13.568;2023-10-31T00:06:48;5.55;;;3.92;;
9409;SDS011;4744;52.576;13.568;2023-10-31T00:09:15;8.73;;;3.33;;
9409;SDS011;4744;52.576;13.568;2023-10-31T00:11:42;4.07;;;3.35;;
9409;SDS011;4744;52.576;13.568;2023-10-31T00:14:10;5.20;;;3.38;;
9409;SDS011;4744;52.576;13.568;2023-10-31T00:16:37;6.80;;;3.60;;
9409;SDS011;4744;52.576;13.568;2023-10-31T00:19:05;4.47;;;3.40;;
9409;SDS011;4744;52.576;13.568;2023-10-31T00:21:32;4.80;;;3.80;;
9409;SDS011;4744;52.576;13.568;2023-10-31T00:23:59;5.00;;;3.80;;
9409;SDS011;4744;52.576;13.568;2023-10-31T00:26:26;4.05;;;3.60;;
9409;SDS011;4744;52.576;13.568;2023-10-31T00:28:53;6.95;;;3.50;;
9409;SDS011;4744;52.576;13.568;2023-10-31T00:31:19;4.10;;;3.58;;
9409;SDS011;4744;52.576;13.568;2023-10-31T00:33:46;4.38;;;3.50;;
9409;SDS011;4744;52.576;13.568;2023-10-31T00:36:14;6.00;;;3.70;;
9409;SDS011;4744;52.576;13.568;2023-10-31T00:38:44;4.75;;;4.10;;
9409;SDS011;4744;52.576;13.568;2023-10-31T00:41:11;3.72;;;3.33;;
9409;SDS011;4744;52.576;13.568;2023-10-31T00:43:38;4.22;;;3.58;;
9409;SDS011;4744;52.576;13.568;2023-10-31T00:46:05;4.65;;;3.90;;
9409;SDS011;4744;52.576;13.568;2023-10-31T00:48:32;3.80;;;3.40;;
9409;SDS011;4744;52.576;13.568;2023-10-31T00:51:01;3.92;;;3.50;;
9409;SDS011;4744;52.576;13.568;2023-10-31T00:53:30;6.00;;;3.97;;
9409;SDS011;4744;52.576;13.568;2023-10-31T00:55:58;5.65;;;4.20;;
9409;SDS011;4744;52.576;13.568;2023-10-31T00:58:25;5.78;;;3.85;;
9409;SDS011;4744;52.576;13.568;2023-10-31T01:00:51;6.88;;;3.88;;
9409;SDS011;4744;52.576;13.568;2023-10-31T01:03:18;4.45;;;3.70;;
9409;SDS011;4744;52.576;13.568;2023-10-31T01:05:45;4.93;;;4.05;;
9409;SDS011;4744;52.576;13.568;2023-10-31T01:08:12;5.30;;;4.20;;
9409;SDS011;4744;52.576;13.568;2023-10-31T01:10:40;5.28;;;3.78;;
9409;SDS011;4744;52.576;13.568;2023-10-31T01:13:07;4.90;;;3.78;;
9409;SDS011;4744;52.576;13.568;2023-10-31T01:15:34;8.07;;;4.20;;
9409;SDS011;4744;52.576;13.568;2023-10-31T01:18:01;6.70;;;4.50;;
9409;SDS011;4744;52.576;13.568;2023-10-31T01:20:28;3.78;;;3.42;;
9409;SDS011;4744;52.576;13.568;2023-10-31T01:22:55;4.55;;;3.60;;
9409;SDS011;4744;52.576;13.568;2023-10-31T01:25:22;4.55;;;3.92;;
9409;SDS011;4744;52.576;13.568;2023-10-31T01:27:50;4.70;;;4.15;;
9409;SDS011;4744;52.576;13.568;2023-10-31T01:30:17;3.65;;;3.35;;
9409;SDS011;4744;52.576;13.568;2023-10-31T01:32:44;4.10;;;3.50;;
9409;SDS011;4744;52.576;13.568;2023-10-31T01:35:11;5.45;;;3.25;;
9409;SDS011;4744;52.576;13.568;2023-10-31T01:37:38;3.97;;;3.55;;
9409;SDS011;4744;52.576;13.568;2023-10-31T01:40:05;4.97;;;3.90;;
9409;SDS011;4744;52.576;13.568;2023-10-31T01:42:33;5.47;;;3.83;;
9409;SDS011;4744;52.576;13.568;2023-10-31T01:45:02;5.47;;;4.55;;
9409;SDS011;4744;52.576;13.568;2023-10-31T01:47:29;8.57;;;4.47;;
9409;SDS011;4744;52.576;13.568;2023-10-31T01:49:56;6.43;;;4.03;;
9409;SDS011;4744;52.576;13.568;2023-10-31T01:52:23;5.38;;;4.07;;
9409;SDS011;4744;52.576;13.568;2023-10-31T01:54:50;4.90;;;3.72;;
9409;SDS011;4744;52.576;13.568;2023-10-31T01:57:18;4.70;;;4.30;;
9409;SDS011;4744;52.576;13.568;2023-10-31T01:59:46;4.45;;;3.97;;
9409;SDS011;4744;52.576;13.568;2023-10-31T02:02:14;4.22;;;3.83;;
9409;SDS011;4744;52.576;13.568;2023-10-31T02:04:42;4.45;;;4.05;;
9409;SDS011;4744;52.576;13.568;2023-10-31T02:07:09;4.30;;;3.90;;
9409;SDS011;4744;52.576;13.568;2023-10-31T02:09:36;4.85;;;4.35;;
9409;SDS011;4744;52.576;13.568;2023-10-31T02:12:03;4.88;;;4.07;;
9409;SDS011;4744;52.576;13.568;2023-10-31T02:14:30;5.28;;;4.43;;
9409;SDS011;4744;52.576;13.568;2023-10-31T02:16:57;5.15;;;3.80;;
9409;SDS011;4744;52.576;13.568;2023-10-31T02:19:25;4.80;;;4.30;;
9409;SDS011;4744;52.576;13.568;2023-10-31T02:21:54;7.22;;;4.68;;
9409;SDS011;4744;52.576;13.568;2023-10-31T02:24:21;5.05;;;4.50;;
9409;SDS011;4744;52.576;13.568;2023-10-31T02:26:48;4.38;;;3.90;;
9409;SDS011;4744;52.576;13.568;2023-10-31T02:29:15;4.30;;;3.95;;
9409;SDS011;4744;52.576;13.568;2023-10-31T02:31:42;4.30;;;3.90;;
9409;SDS011;4744;52.576;13.568;2023-10-31T02:34:08;4.90;;;4.40;;
9409;SDS011;4744;52.576;13.568;2023-10-31T02:36:35;4.93;;;4.35;;
9409;SDS011;4744;52.576;13.568;2023-10-31T02:39:04;5.55;;;4.47;;
9409;SDS011;4744;52.576;13.568;2023-10-31T02:41:30;5.25;;;4.63;;
9409;SDS011;4744;52.576;13.568;2023-10-31T02:43:57;5.55;;;4.60;;
9409;SDS011;4744;52.576;13.568;2023-10-31T02:46:24;4.50;;;3.95;;
9409;SDS011;4744;52.576;13.568;2023-10-31T02:48:51;6.38;;;4.97;;
9409;SDS011;4744;52.576;13.568;2023-10-31T02:51:18;5.32;;;4.82;;
9409;SDS011;4744;52.576;13.568;2023-10-31T02:53:45;5.35;;;4.53;;
9409;SDS011;4744;52.576;13.568;2023-10-31T02:56:13;6.55;;;5.10;;
9409;SDS011;4744;52.576;13.568;2023-10-31T02:58:40;5.30;;;4.80;;
9409;SDS011;4744;52.576;13.568;2023-10-31T03:01:07;4.65;;;4.25;;
9409;SDS011;4744;52.576;13.568;2023-10-31T03:03:34;4.70;;;4.30;;
9409;SDS011;4744;52.576;13.568;2023-10-31T03:06:01;5.15;;;4.75;;
9409;SDS011;4744;52.576;13.568;2023-10-31T03:08:27;5.78;;;4.82;;
9409;SDS011;4744;52.576;13.568;2023-10-31T03:10:54;5.38;;;4.85;;
9409;SDS011;4744;52.576;13.568;2023-10-31T03:13:23;4.72;;;4.32;;
9409;SDS011;4744;52.576;13.568;2023-10-31T03:15:49;5.70;;;5.10;;
9409;SDS011;4744;52.576;13.568;2023-10-31T03:18:16;5.20;;;4.70;;
9409;SDS011;4744;52.576;13.568;2023-10-31T03:20:44;6.28;;;5.28;;
9409;SDS011;4744;52.576;13.568;2023-10-31T03:23:11;5.45;;;4.95;;
9409;SDS011;4744;52.576;13.568;2023-10-31T03:25:38;5.57;;;5.05;;
9409;SDS011;4744;52.576;13.568;2023-10-31T03:28:07;5.88;;;5.00;;
9409;SDS011;4744;52.576;13.568;2023-10-31T03:30:44;6.20;;;5.60;;
9409;SDS011;4744;52.576;13.568;2023-10-31T03:33:12;6.93;;;5.25;;
9409;SDS011;4744;52.576;13.568;2023-10-31T03:35:39;6.13;;;5.53;;
9409;SDS011;4744;52.576;13.568;2023-10-31T03:38:05;8.32;;;6.03;;
9409;SDS011;4744;52.576;13.568;2023-10-31T03:40:32;7.10;;;5.50;;
9409;SDS011;4744;52.576;13.568;2023-10-31T03:42:59;9.05;;;6.57;;
9409;SDS011;4744;52.576;13.568;2023-10-31T03:45:26;7.35;;;6.38;;
9409;SDS011;4744;52.576;13.568;2023-10-31T03:47:54;6.93;;;6.03;;
9409;SDS011;4744;52.576;13.568;2023-10-31T03:50:21;10.55;;;6.57;;
9409;SDS011;4744;52.576;13.568;2023-10-31T03:52:48;6.32;;;5.80;;
9409;SDS011;4744;52.576;13.568;2023-10-31T03:55:15;6.93;;;5.60;;
9409;SDS011;4744;52.576;13.568;2023-10-31T03:57:42;6.07;;;5.38;;
9409;SDS011;4744;52.576;13.568;2023-10-31T04:00:10;7.55;;;5.93;;
9409;SDS011;4744;52.576;13.568;2023-10-31T04:02:38;7.50;;;6.32;;
9409;SDS011;4744;52.576;13.568;2023-10-31T04:05:07;7.53;;;6.72;;
9409;SDS011;4744;52.576;13.568;2023-10-31T04:07:34;7.30;;;6.25;;
9409;SDS011;4744;52.576;13.568;2023-10-31T04:10:01;9.05;;;6.90;;
9409;SDS011;4744;52.576;13.568;2023-10-31T04:12:28;7.93;;;7.10;;
9409;SDS011;4744;52.576;13.568;2023-10-31T04:14:55;10.25;;;6.95;;
9409;SDS011;4744;52.576;13.568;2023-10-31T04:17:22;9.15;;;7.50;;
9409;SDS011;4744;52.576;13.568;2023-10-31T04:19:49;8.02;;;6.88;;
9409;SDS011;4744;52.576;13.568;2023-10-31T04:22:17;8.27;;;7.18;;
9409;SDS011;4744;52.576;13.568;2023-10-31T04:24:44;7.10;;;6.18;;
9409;SDS011;4744;52.576;13.568;2023-10-31T04:27:11;8.57;;;6.80;;
9409;SDS011;4744;52.576;13.568;2023-10-31T04:29:38;8.20;;;6.78;;
9409;SDS011;4744;52.576;13.568;2023-10-31T04:32:05;8.05;;;7.10;;
9409;SDS011;4744;52.576;13.568;2023-10-31T04:34:32;10.35;;;7.28;;
9409;SDS011;4744;52.576;13.568;2023-10-31T04:36:59;7.88;;;6.75;;
9409;SDS011;4744;52.576;13.568;2023-10-31T04:39:27;6.70;;;6.10;;
9409;SDS011;4744;52.576;13.568;2023-10-31T04:41:54;7.43;;;6.50;;
9409;SDS011;4744;52.576;13.568;2023-10-31T04:44:21;7.53;;;6.82;;
9409;SDS011;4744;52.576;13.568;2023-10-31T04:46:48;7.03;;;6.38;;
9409;SDS011;4744;52.576;13.568;2023-10-31T04:49:15;7.15;;;6.55;;
9409;SDS011;4744;52.576;13.568;2023-10-31T04:51:42;7.13;;;6.43;;
9409;SDS011;4744;52.576;13.568;2023-10-31T04:54:09;7.78;;;6.88;;
9409;SDS011;4744;52.576;13.568;2023-10-31T04:56:37;7.43;;;6.68;;
9409;SDS011;4744;52.576;13.568;2023-10-31T04:59:05;7.05;;;6.45;;
9409;SDS011;4744;52.576;13.568;2023-10-31T05:01:32;7.40;;;6.70;;
9409;SDS011;4744;52.576;13.568;2023-10-31T05:03:59;7.45;;;6.75;;
9409;SDS011;4744;52.576;13.568;2023-10-31T05:06:26;8.50;;;7.63;;
9409;SDS011;4744;52.576;13.568;2023-10-31T05:08:53;9.18;;;8.25;;
9409;SDS011;4744;52.576;13.568;2023-10-31T05:11:20;9.10;;;8.05;;
9409;SDS011;4744;52.576;13.568;2023-10-31T05:13:48;8.82;;;8.00;;
9409;SDS011;4744;52.576;13.568;2023-10-31T05:16:15;7.13;;;6.55;;
9409;SDS011;4744;52.576;13.568;2023-10-31T05:18:42;7.38;;;6.68;;
9409;SDS011;4744;52.576;13.568;2023-10-31T05:21:08;8.32;;;7.18;;
9409;SDS011;4744;52.576;13.568;2023-10-31T05:23:35;8.15;;;7.32;;
9409;SDS011;4744;52.576;13.568;2023-10-31T05:26:04;8.35;;;7.53;;
9409;SDS011;4744;52.576;13.568;2023-10-31T05:28:31;9.77;;;8.77;;
9409;SDS011;4744;52.576;13.568;2023-10-31T05:31:00;9.55;;;8.50;;
9409;SDS011;4744;52.576;13.568;2023-10-31T05:33:27;9.55;;;8.25;;
9409;SDS011;4744;52.576;13.568;2023-10-31T05:35:53;10.38;;;8.20;;
9409;SDS011;4744;52.576;13.568;2023-10-31T05:38:20;8.80;;;7.97;;
9409;SDS011;4744;52.576;13.568;2023-10-31T05:40:47;9.23;;;8.18;;
9409;SDS011;4744;52.576;13.568;2023-10-31T05:43:14;10.00;;;8.30;;
9409;SDS011;4744;52.576;13.568;2023-10-31T05:45:41;9.07;;;7.90;;
9409;SDS011;4744;52.576;13.568;2023-10-31T05:48:09;7.88;;;7.18;;
9409;SDS011;4744;52.576;13.568;2023-10-31T05:50:38;8.85;;;8.00;;
9409;SDS011;4744;52.576;13.568;2023-10-31T05:53:05;7.50;;;6.88;;
9409;SDS011;4744;52.576;13.568;2023-10-31T05:55:32;7.97;;;7.18;;
9409;SDS011;4744;52.576;13.568;2023-10-31T05:57:59;7.30;;;6.70;;
9409;SDS011;4744;52.576;13.568;2023-10-31T06:00:26;7.32;;;6.63;;
9409;SDS011;4744;52.576;13.568;2023-10-31T06:02:53;8.13;;;7.32;;
9409;SDS011;4744;52.576;13.568;2023-10-31T06:05:21;6.57;;;5.97;;
9409;SDS011;4744;52.576;13.568;2023-10-31T06:07:48;7.10;;;6.40;;
9409;SDS011;4744;52.576;13.568;2023-10-31T06:10:15;6.88;;;6.18;;
9409;SDS011;4744;52.576;13.568;2023-10-31T06:12:42;6.30;;;5.80;;
9409;SDS011;4744;52.576;13.568;2023-10-31T06:15:09;6.10;;;5.60;;
9409;SDS011;4744;52.576;13.568;2023-10-31T06:17:36;6.20;;;5.70;;
9409;SDS011;4744;52.576;13.568;2023-10-31T06:20:03;5.78;;;5.32;;
9409;SDS011;4744;52.576;13.568;2023-10-31T06:22:32;6.13;;;5.55;;
9409;SDS011;4744;52.576;13.568;2023-10-31T06:24:59;6.75;;;6.15;;
9409;SDS011;4744;52.576;13.568;2023-10-31T06:27:26;6.18;;;5.65;;
9409;SDS011;4744;52.576;13.568;2023-10-31T06:29:53;5.88;;;5.38;;
9409;SDS011;4744;52.576;13.568;2023-10-31T06:32:20;5.00;;;4.60;;
9409;SDS011;4744;52.576;13.568;2023-10-31T06:34:47;6.50;;;5.90;;
9409;SDS011;4744;52.576;13.568;2023-10-31T06:37:14;5.38;;;4.88;;
9409;SDS011;4744;52.576;13.568;2023-10-31T06:39:42;5.82;;;5.35;;
9409;SDS011;4744;52.576;13.568;2023-10-31T06:42:09;5.45;;;5.00;;
9409;SDS011;4744;52.576;13.568;2023-10-31T06:44:36;7.45;;;6.85;;
9409;SDS011;4744;52.576;13.568;2023-10-31T06:47:03;7.63;;;6.82;;
9409;SDS011;4744;52.576;13.568;2023-10-31T06:49:30;7.07;;;6.47;;
9409;SDS011;4744;52.576;13.568;2023-10-31T06:51:57;7.85;;;7.15;;
9409;SDS011;4744;52.576;13.568;2023-10-31T06:54:24;7.05;;;6.45;;
9409;SDS011;4744;52.576;13.568;2023-10-31T06:56:52;7.72;;;7.03;;
9409;SDS011;4744;52.576;13.568;2023-10-31T06:59:19;8.48;;;7.60;;
9409;SDS011;4744;52.576;13.568;2023-10-31T07:01:46;8.73;;;7.82;;
9409;SDS011;4744;52.576;13.568;2023-10-31T07:04:13;7.95;;;7.20;;
9409;SDS011;4744;52.576;13.568;2023-10-31T07:06:39;7.80;;;7.13;;
9409;SDS011;4744;52.576;13.568;2023-10-31T07:09:06;6.45;;;5.95;;
9409;SDS011;4744;52.576;13.568;2023-10-31T07:11:34;7.25;;;6.55;;
9409;SDS011;4744;52.576;13.568;2023-10-31T07:14:02;6.05;;;5.55;;
9409;SDS011;4744;52.576;13.568;2023-10-31T07:16:31;6.88;;;5.82;;
9409;SDS011;4744;52.576;13.568;2023-10-31T07:18:59;6.70;;;6.10;;
9409;SDS011;4744;52.576;13.568;2023-10-31T07:21:25;7.13;;;6.20;;
9409;SDS011;4744;52.576;13.568;2023-10-31T07:23:52;6.93;;;6.20;;
9409;SDS011;4744;52.576;13.568;2023-10-31T07:26:20;6.88;;;6.28;;
9409;SDS011;4744;52.576;13.568;2023-10-31T07:28:47;7.22;;;6.07;;
9409;SDS011;4744;52.576;13.568;2023-10-31T07:31:15;5.88;;;5.38;;
9409;SDS011;4744;52.576;13.568;2023-10-31T07:33:43;5.97;;;5.47;;
9409;SDS011;4744;52.576;13.568;2023-10-31T07:36:11;6.25;;;5.05;;
9409;SDS011;4744;52.576;13.568;2023-10-31T07:38:41;5.00;;;4.60;;
9409;SDS011;4744;52.576;13.568;2023-10-31T07:41:08;3.80;;;3.50;;
9409;SDS011;4744;52.576;13.568;2023-10-31T07:43:35;3.58;;;3.30;;
9409;SDS011;4744;52.576;13.568;2023-10-31T07:46:02;3.70;;;3.40;;
9409;SDS011;4744;52.576;13.568;2023-10-31T07:48:31;3.35;;;3.05;;
9409;SDS011;4744;52.576;13.568;2023-10-31T07:50:57;3.45;;;3.15;;
9409;SDS011;4744;52.576;13.568;2023-10-31T07:53:24;3.65;;;3.13;;
9409;SDS011;4744;52.576;13.568;2023-10-31T07:55:51;5.07;;;2.65;;
9409;SDS011;4744;52.576;13.568;2023-10-31T07:58:18;2.95;;;2.75;;
9409;SDS011;4744;52.576;13.568;2023-10-31T08:00:45;2.67;;;2.47;;
9409;SDS011;4744;52.576;13.568;2023-10-31T08:03:12;2.80;;;2.60;;
9409;SDS011;4744;52.576;13.568;2023-10-31T08:05:40;2.35;;;2.22;;
9409;SDS011;4744;52.576;13.568;2023-10-31T08:08:07;2.30;;;2.10;;
9409;SDS011;4744;52.576;13.568;2023-10-31T08:10:34;2.17;;;1.98;;
9409;SDS011;4744;52.576;13.568;2023-10-31T08:13:01;2.33;;;2.22;;
9409;SDS011;4744;52.576;13.568;2023-10-31T08:15:28;6.38;;;1.90;;
9409;SDS011;4744;52.576;13.568;2023-10-31T08:17:55;2.00;;;1.90;;
9409;SDS011;4744;52.576;13.568;2023-10-31T08:20:22;2.00;;;1.90;;
9409;SDS011;4744;52.576;13.568;2023-10-31T08:22:50;1.70;;;1.60;;
9409;SDS011;4744;52.576;13.568;2023-10-31T08:25:17;1.75;;;1.65;;
9409;SDS011;4744;52.576;13.568;2023-10-31T08:27:45;2.88;;;1.80;;
9409;SDS011;4744;52.576;13.568;2023-10-31T08:30:12;1.55;;;1.45;;
9409;SDS011;4744;52.576;13.568;2023-10-31T08:32:39;1.27;;;1.17;;
9409;SDS011;4744;52.576;13.568;2023-10-31T08:35:07;2.58;;;1.30;;
9409;SDS011;4744;52.576;13.568;2023-10-31T08:37:34;1.33;;;1.23;;
9409;SDS011;4744;52.576;13.568;2023-10-31T08:40:02;1.10;;;1.10;;
9409;SDS011;4744;52.576;13.568;2023-10-31T08:42:29;1.13;;;1.13;;
9409;SDS011;4744;52.576;13.568;2023-10-31T08:44:56;1.83;;;1.08;;
9409;SDS011;4744;52.576;13.568;2023-10-31T08:47:23;0.80;;;0.80;;
9409;SDS011;4744;52.576;13.568;2023-10-31T08:49:50;1.30;;;1.23;;
9409;SDS011;4744;52.576;13.568;2023-10-31T08:52:17;1.10;;;1.00;;
9409;SDS011;4744;52.576;13.568;2023-10-31T08:54:44;2.45;;;1.00;;
9409;SDS011;4744;52.576;13.568;2023-10-31T08:57:12;0.73;;;0.73;;
9409;SDS011;4744;52.576;13.568;2023-10-31T08:59:39;1.55;;;0.90;;
9409;SDS011;4744;52.576;13.568;2023-10-31T09:02:06;2.38;;;0.80;;
9409;SDS011;4744;52.576;13.568;2023-10-31T09:04:33;0.80;;;0.80;;
9409;SDS011;4744;52.576;13.568;2023-10-31T09:07:00;0.65;;;0.65;;
9409;SDS011;4744;52.576;13.568;2023-10-31T09:09:27;1.65;;;0.68;;
9409;SDS011;4744;52.576;13.568;2023-10-31T09:11:54;1.02;;;0.73;;
9409;SDS011;4744;52.576;13.568;2023-10-31T09:14:22;1.10;;;0.70;;
9409;SDS011;4744;52.576;13.568;2023-10-31T09:16:49;0.70;;;0.70;;
9409;SDS011;4744;52.576;13.568;2023-10-31T09:19:16;0.70;;;0.65;;
9409;SDS011;4744;52.576;13.568;2023-10-31T09:21:43;1.38;;;0.65;;
9409;SDS011;4744;52.576;13.568;2023-10-31T09:24:10;1.13;;;0.70;;
9409;SDS011;4744;52.576;13.568;2023-10-31T09:26:41;0.60;;;0.60;;
9409;SDS011;4744;52.576;13.568;2023-10-31T09:29:08;0.60;;;0.60;;
9409;SDS011;4744;52.576;13.568;2023-10-31T09:31:36;1.80;;;0.93;;
9409;SDS011;4744;52.576;13.568;2023-10-31T09:34:03;0.63;;;0.63;;
9409;SDS011;4744;52.576;13.568;2023-10-31T09:39:05;1.45;;;0.50;;
9409;SDS011;4744;52.576;13.568;2023-10-31T09:41:32;0.68;;;0.68;;
9409;SDS011;4744;52.576;13.568;2023-10-31T09:43:59;0.52;;;0.52;;
9409;SDS011;4744;52.576;13.568;2023-10-31T09:46:26;0.63;;;0.57;;
9409;SDS011;4744;52.576;13.568;2023-10-31T09:48:56;0.65;;;0.60;;
9409;SDS011;4744;52.576;13.568;2023-10-31T09:51:23;1.63;;;0.50;;
9409;SDS011;4744;52.576;13.568;2023-10-31T09:53:50;2.42;;;0.50;;
9409;SDS011;4744;52.576;13.568;2023-10-31T09:56:20;0.55;;;0.50;;
9409;SDS011;4744;52.576;13.568;2023-10-31T09:58:48;0.63;;;0.30;;
9409;SDS011;4744;52.576;13.568;2023-10-31T10:01:15;1.60;;;0.60;;
9409;SDS011;4744;52.576;13.568;2023-10-31T10:03:41;1.30;;;0.88;;
9409;SDS011;4744;52.576;13.568;2023-10-31T10:06:11;2.25;;;0.77;;
9409;SDS011;4744;52.576;13.568;2023-10-31T10:08:38;2.05;;;0.60;;
9409;SDS011;4744;52.576;13.568;2023-10-31T10:11:05;0.45;;;0.45;;
9409;SDS011;4744;52.576;13.568;2023-10-31T10:13:32;0.85;;;0.70;;
9409;SDS011;4744;52.576;13.568;2023-10-31T10:15:59;0.95;;;0.95;;
9409;SDS011;4744;52.576;13.568;2023-10-31T10:18:27;0.80;;;0.80;;
9409;SDS011;4744;52.576;13.568;2023-10-31T10:20:55;0.60;;;0.60;;
9409;SDS011;4744;52.576;13.568;2023-10-31T10:23:24;0.88;;;0.88;;
9409;SDS011;4744;52.576;13.568;2023-10-31T10:25:51;1.65;;;0.70;;
9409;SDS011;4744;52.576;13.568;2023-10-31T10:28:19;1.05;;;0.95;;
9409;SDS011;4744;52.576;13.568;2023-10-31T10:30:46;0.95;;;0.95;;
9409;SDS011;4744;52.576;13.568;2023-10-31T10:33:12;3.63;;;0.82;;
9409;SDS011;4744;52.576;13.568;2023-10-31T10:35:39;1.02;;;0.88;;
9409;SDS011;4744;52.576;13.568;2023-10-31T10:38:06;0.70;;;0.70;;
9409;SDS011;4744;52.576;13.568;2023-10-31T10:40:38;1.02;;;0.80;;
9409;SDS011;4744;52.576;13.568;2023-10-31T10:43:07;0.90;;;0.90;;
9409;SDS011;4744;52.576;13.568;2023-10-31T10:45:41;0.90;;;0.90;;
9409;SDS011;4744;52.576;13.568;2023-10-31T10:48:10;1.02;;;1.02;;
9409;SDS011;4744;52.576;13.568;2023-10-31T10:50:41;1.20;;;0.98;;
9409;SDS011;4744;52.576;13.568;2023-10-31T10:53:12;1.05;;;0.85;;
9409;SDS011;4744;52.576;13.568;2023-10-31T10:55:45;0.90;;;0.90;;
9409;SDS011;4744;52.576;13.568;2023-10-31T10:58:17;1.27;;;1.20;;
9409;SDS011;4744;52.576;13.568;2023-10-31T11:00:48;0.90;;;0.90;;
9409;SDS011;4744;52.576;13.568;2023-10-31T11:03:16;1.20;;;1.10;;
9409;SDS011;4744;52.576;13.568;2023-10-31T11:05:45;1.42;;;0.90;;
9409;SDS011;4744;52.576;13.568;2023-10-31T11:08:12;1.52;;;1.20;;
9409;SDS011;4744;52.576;13.568;2023-10-31T11:10:40;1.05;;;1.00;;
9409;SDS011;4744;52.576;13.568;2023-10-31T11:13:09;0.95;;;0.95;;
9409;SDS011;4744;52.576;13.568;2023-10-31T11:15:38;1.15;;;1.10;;
9409;SDS011;4744;52.576;13.568;2023-10-31T11:18:06;3.05;;;1.50;;
9409;SDS011;4744;52.576;13.568;2023-10-31T11:20:33;1.40;;;1.30;;
9409;SDS011;4744;52.576;13.568;2023-10-31T11:23:01;1.58;;;1.10;;
9409;SDS011;4744;52.576;13.568;2023-10-31T11:25:31;1.10;;;1.10;;
9409;SDS011;4744;52.576;13.568;2023-10-31T11:28:12;1.58;;;1.48;;
9409;SDS011;4744;52.576;13.568;2023-10-31T11:30:39;2.38;;;1.42;;
9409;SDS011;4744;52.576;13.568;2023-10-31T11:33:11;1.50;;;1.40;;
9409;SDS011;4744;52.576;13.568;2023-10-31T11:35:39;4.18;;;1.65;;
9409;SDS011;4744;52.576;13.568;2023-10-31T11:38:06;1.73;;;1.50;;
9409;SDS011;4744;52.576;13.568;2023-10-31T11:40:36;1.33;;;1.33;;
9409;SDS011;4744;52.576;13.568;2023-10-31T11:43:04;2.33;;;1.80;;
9409;SDS011;4744;52.576;13.568;2023-10-31T11:45:35;1.60;;;1.50;;
9409;SDS011;4744;52.576;13.568;2023-10-31T11:48:07;1.50;;;1.40;;
9409;SDS011;4744;52.576;13.568;2023-10-31T11:50:35;1.67;;;1.58;;
9409;SDS011;4744;52.576;13.568;2023-10-31T11:53:04;1.63;;;1.52;;
9409;SDS011;4744;52.576;13.568;2023-10-31T11:55:32;1.70;;;1.60;;
9409;SDS011;4744;52.576;13.568;2023-10-31T11:58:16;3.70;;;1.60;;
9409;SDS011;4744;52.576;13.568;2023-10-31T12:00:45;1.55;;;1.50;;
9409;SDS011;4744;52.576;13.568;2023-10-31T12:03:15;1.50;;;1.40;;
9409;SDS011;4744;52.576;13.568;2023-10-31T12:05:50;1.42;;;1.33;;
9409;SDS011;4744;52.576;13.568;2023-10-31T12:08:24;1.58;;;1.48;;
9409;SDS011;4744;52.576;13.568;2023-10-31T12:10:57;1.45;;;1.45;;
9409;SDS011;4744;52.576;13.568;2023-10-31T12:13:29;1.42;;;1.33;;
9409;SDS011;4744;52.576;13.568;2023-10-31T12:15:58;1.60;;;1.30;;
9409;SDS011;4744;52.576;13.568;2023-10-31T12:18:25;1.33;;;1.20;;
9409;SDS011;4744;52.576;13.568;2023-10-31T12:20:52;1.20;;;1.20;;
9409;SDS011;4744;52.576;13.568;2023-10-31T12:23:19;1.27;;;1.17;;
9409;SDS011;4744;52.576;13.568;2023-10-31T12:25:46;1.38;;;1.30;;
9409;SDS011;4744;52.576;13.568;2023-10-31T12:28:16;1.38;;;1.25;;
9409;SDS011;4744;52.576;13.568;2023-10-31T12:30:46;1.55;;;1.13;;
9409;SDS011;4744;52.576;13.568;2023-10-31T12:33:16;1.08;;;1.00;;
9409;SDS011;4744;52.576;13.568;2023-10-31T12:35:43;2.15;;;1.02;;
9409;SDS011;4744;52.576;13.568;2023-10-31T12:38:11;0.95;;;0.95;;
9409;SDS011;4744;52.576;13.568;2023-10-31T12:40:39;1.85;;;1.00;;
9409;SDS011;4744;52.576;13.568;2023-10-31T12:43:08;0.77;;;0.77;;
9409;SDS011;4744;52.576;13.568;2023-10-31T12:45:36;0.88;;;0.70;;
9409;SDS011;4744;52.576;13.568;2023-10-31T12:48:03;0.85;;;0.85;;
9409;SDS011;4744;52.576;13.568;2023-10-31T12:50:32;0.70;;;0.70;;
9409;SDS011;4744;52.576;13.568;2023-10-31T12:53:01;1.60;;;1.00;;
9409;SDS011;4744;52.576;13.568;2023-10-31T12:55:29;0.77;;;0.77;;
9409;SDS011;4744;52.576;13.568;2023-10-31T12:57:57;2.88;;;0.80;;
9409;SDS011;4744;52.576;13.568;2023-10-31T13:00:29;0.77;;;0.77;;
9409;SDS011;4744;52.576;13.568;2023-10-31T13:02:58;0.57;;;0.57;;
9409;SDS011;4744;52.576;13.568;2023-10-31T13:05:27;1.42;;;0.65;;
9409;SDS011;4744;52.576;13.568;2023-10-31T13:07:56;0.70;;;0.70;;
9409;SDS011;4744;52.576;13.568;2023-10-31T13:10:26;0.57;;;0.57;;
9409;SDS011;4744;52.576;13.568;2023-10-31T13:12:54;0.65;;;0.63;;
9409;SDS011;4744;52.576;13.568;2023-10-31T13:15:22;0.50;;;0.50;;
9409;SDS011;4744;52.576;13.568;2023-10-31T13:17:49;0.47;;;0.47;;
9409;SDS011;4744;52.576;13.568;2023-10-31T13:20:18;0.40;;;0.40;;
9409;SDS011;4744;52.576;13.568;2023-10-31T13:22:46;1.65;;;0.43;;
9409;SDS011;4744;52.576;13.568;2023-10-31T13:25:15;0.30;;;0.30;;
9409;SDS011;4744;52.576;13.568;2023-10-31T13:27:43;0.47;;;0.47;;
9409;SDS011;4744;52.576;13.568;2023-10-31T13:30:15;0.32;;;0.25;;
9409;SDS011;4744;52.576;13.568;2023-10-31T13:32:43;0.55;;;0.40;;
9409;SDS011;4744;52.576;13.568;2023-10-31T13:35:10;1.10;;;0.50;;
9409;SDS011;4744;52.576;13.568;2023-10-31T13:37:39;0.40;;;0.40;;
9409;SDS011;4744;52.576;13.568;2023-10-31T13:40:06;0.32;;;0.30;;
9409;SDS011;4744;52.576;13.568;2023-10-31T13:42:35;0.57;;;0.40;;
9409;SDS011;4744;52.576;13.568;2023-10-31T13:45:02;0.40;;;0.40;;
9409;SDS011;4744;52.576;13.568;2023-10-31T13:47:30;0.38;;;0.38;;
9409;SDS011;4744;52.576;13.568;2023-10-31T13:49:58;0.25;;;0.25;;
9409;SDS011;4744;52.576;13.568;2023-10-31T13:52:24;1.63;;;0.68;;
9409;SDS011;4744;52.576;13.568;2023-10-31T13:54:51;0.43;;;0.40;;
9409;SDS011;4744;52.576;13.568;2023-10-31T13:57:18;0.75;;;0.55;;
9409;SDS011;4744;52.576;13.568;2023-10-31T13:59:47;1.40;;;0.40;;
9409;SDS011;4744;52.576;13.568;2023-10-31T14:02:13;1.95;;;0.60;;
9409;SDS011;4744;52.576;13.568;2023-10-31T14:04:42;0.40;;;0.40;;
9409;SDS011;4744;52.576;13.568;2023-10-31T14:07:09;0.68;;;0.63;;
9409;SDS011;4744;52.576;13.568;2023-10-31T14:09:41;1.90;;;0.50;;
9409;SDS011;4744;52.576;13.568;2023-10-31T14:12:08;0.43;;;0.32;;
9409;SDS011;4744;52.576;13.568;2023-10-31T14:14:35;1.02;;;0.35;;
9409;SDS011;4744;52.576;13.568;2023-10-31T14:17:03;0.57;;;0.50;;
9409;SDS011;4744;52.576;13.568;2023-10-31T14:19:30;0.50;;;0.40;;
9409;SDS011;4744;52.576;13.568;2023-10-31T14:21:57;0.40;;;0.40;;
9409;SDS011;4744;52.576;13.568;2023-10-31T14:24:24;1.60;;;0.30;;
9409;SDS011;4744;52.576;13.568;2023-10-31T14:26:51;0.50;;;0.50;;
9409;SDS011;4744;52.576;13.568;2023-10-31T14:29:18;1.00;;;0.73;;
9409;SDS011;4744;52.576;13.568;2023-10-31T14:31:46;0.50;;;0.50;;
9409;SDS011;4744;52.576;13.568;2023-10-31T14:34:14;0.50;;;0.50;;
9409;SDS011;4744;52.576;13.568;2023-10-31T14:36:41;0.93;;;0.32;;
9409;SDS011;4744;52.576;13.568;2023-10-31T14:39:08;1.85;;;0.45;;
9409;SDS011;4744;52.576;13.568;2023-10-31T14:41:36;0.38;;;0.38;;
9409;SDS011;4744;52.576;13.568;2023-10-31T14:44:04;1.15;;;0.40;;
9409;SDS011;4744;52.576;13.568;2023-10-31T14:46:31;0.50;;;0.50;;
9409;SDS011;4744;52.576;13.568;2023-10-31T14:48:58;0.75;;;0.43;;
9409;SDS011;4744;52.576;13.568;2023-10-31T14:51:26;0.77;;;0.47;;
9409;SDS011;4744;52.576;13.568;2023-10-31T14:53:53;0.60;;;0.60;;
9409;SDS011;4744;52.576;13.568;2023-10-31T14:56:20;0.50;;;0.32;;
9409;SDS011;4744;52.576;13.568;2023-10-31T14:58:47;0.30;;;0.30;;
9409;SDS011;4744;52.576;13.568;2023-10-31T15:01:14;0.45;;;0.45;;
9409;SDS011;4744;52.576;13.568;2023-10-31T15:03:41;0.50;;;0.50;;
9409;SDS011;4744;52.576;13.568;2023-10-31T15:06:08;0.50;;;0.50;;